createdAt,value
2016-10-15T00:00:11.551Z,41.93
2016-10-15T00:00:52.256Z,42.03
2016-10-15T00:01:32.901Z,42.03
2016-10-15T00:02:13.590Z,41.74
2016-10-15T00:02:54.303Z,41.64
2016-10-15T00:03:34.992Z,41.74
2016-10-15T00:04:15.656Z,41.76
2016-10-15T00:04:56.374Z,41.83
2016-10-15T00:05:37.045Z,41.93
2016-10-15T00:06:17.739Z,41.95
2016-10-15T00:06:58.441Z,42.13
2016-10-15T00:07:39.158Z,42.13
2016-10-15T00:08:19.831Z,42.13
2016-10-15T00:09:00.532Z,42.32
2016-10-15T00:09:41.230Z,42.05
2016-10-15T00:10:21.882Z,42.22
2016-10-15T00:11:02.518Z,42.22
2016-10-15T00:11:43.191Z,42.13
2016-10-15T00:12:23.896Z,42.22
2016-10-15T00:13:04.558Z,42.32
2016-10-15T00:13:45.209Z,42.22
2016-10-15T00:14:25.870Z,41.93
2016-10-15T00:15:07.486Z,42.03
2016-10-15T00:15:48.845Z,41.86
2016-10-15T00:16:29.487Z,42.41
2016-10-15T00:17:10.169Z,42.03
2016-10-15T00:17:50.886Z,42.03
2016-10-15T00:18:31.564Z,42.05
2016-10-15T00:19:12.270Z,42.03
2016-10-15T00:19:52.901Z,41.95
2016-10-15T00:20:33.583Z,42.41
2016-10-15T00:21:14.293Z,42.32
2016-10-15T00:21:55.013Z,42.14
2016-10-15T00:22:35.715Z,42.22
2016-10-15T00:23:16.407Z,42.22
2016-10-15T00:23:57.103Z,42.41
2016-10-15T00:24:37.794Z,42.13
2016-10-15T00:25:18.483Z,42.32
2016-10-15T00:25:59.143Z,42.24
2016-10-15T00:26:39.846Z,42.32
2016-10-15T00:27:20.548Z,42.22
2016-10-15T00:28:01.289Z,42.44
2016-10-15T00:28:41.959Z,42.32
2016-10-15T00:29:23.381Z,42.44
2016-10-15T00:30:03.380Z,42.41
2016-10-15T00:30:44.092Z,42.61
2016-10-15T00:31:24.810Z,42.32
2016-10-15T00:32:05.494Z,42.22
2016-10-15T00:32:46.197Z,42.41
2016-10-15T00:33:26.917Z,42.41
2016-10-15T00:34:07.628Z,42.54
2016-10-15T00:34:48.284Z,42.44
2016-10-15T00:35:29.002Z,42.51
2016-10-15T00:36:09.675Z,42.13
2016-10-15T00:36:50.379Z,42.51
2016-10-15T00:37:31.040Z,42.41
2016-10-15T00:38:11.760Z,42.44
2016-10-15T00:38:52.446Z,42.34
2016-10-15T00:39:33.149Z,42.32
2016-10-15T00:40:13.802Z,42.41
2016-10-15T00:40:54.497Z,42.32
2016-10-15T00:41:35.181Z,42.41
2016-10-15T00:42:15.844Z,42.32
2016-10-15T00:42:56.494Z,42.22
2016-10-15T00:43:37.167Z,42.22
2016-10-15T00:44:17.896Z,42.32
2016-10-15T00:44:58.592Z,42.13
2016-10-15T00:45:39.282Z,42.32
2016-10-15T00:46:19.956Z,42.51
2016-10-15T00:47:00.617Z,42.22
2016-10-15T00:47:41.293Z,42.71
2016-10-15T00:48:21.948Z,42.22
2016-10-15T00:49:02.612Z,42.44
2016-10-15T00:49:43.333Z,42.32
2016-10-15T00:50:23.998Z,42.41
2016-10-15T00:51:04.685Z,42.51
2016-10-15T00:51:45.355Z,42.41
2016-10-15T00:52:26.060Z,42.22
2016-10-15T00:53:06.783Z,42.51
2016-10-15T00:53:47.489Z,42.13
2016-10-15T00:54:28.158Z,42.41
2016-10-15T00:55:08.799Z,42.34
2016-10-15T00:55:49.460Z,42.51
2016-10-15T00:56:30.160Z,42.61
2016-10-15T00:57:10.848Z,42.41
2016-10-15T00:57:51.480Z,42.44
2016-10-15T00:58:32.143Z,42.41
2016-10-15T00:59:12.865Z,42.13
2016-10-15T00:59:53.502Z,42.22
2016-10-15T01:00:34.238Z,42.32
2016-10-15T01:01:14.878Z,42.14
2016-10-15T01:01:55.630Z,42.82
2016-10-15T01:02:36.317Z,42.34
2016-10-15T01:03:16.982Z,42.32
2016-10-15T01:03:57.685Z,42.44
2016-10-15T01:04:38.385Z,42.44
2016-10-15T01:05:19.068Z,42.32
2016-10-15T01:05:59.710Z,42.54
2016-10-15T01:06:40.414Z,42.54
2016-10-15T01:07:21.120Z,42.13
2016-10-15T01:08:01.779Z,42.51
2016-10-15T01:08:42.454Z,42.51
2016-10-15T01:09:23.105Z,42.32
2016-10-15T01:10:03.781Z,42.51
2016-10-15T01:10:44.497Z,42.54
2016-10-15T01:11:25.200Z,42.63
2016-10-15T01:12:05.821Z,42.54
2016-10-15T01:12:46.490Z,42.41
2016-10-15T01:13:27.215Z,42.41
2016-10-15T01:14:07.881Z,42.44
2016-10-15T01:14:48.592Z,42.54
2016-10-15T01:15:29.255Z,42.32
2016-10-15T01:16:09.963Z,42.24
2016-10-15T01:16:50.644Z,42.63
2016-10-15T01:17:31.376Z,42.34
2016-10-15T01:18:12.082Z,42.51
2016-10-15T01:18:52.753Z,42.51
2016-10-15T01:19:33.428Z,42.61
2016-10-15T01:20:14.124Z,42.41
2016-10-15T01:20:54.807Z,42.34
2016-10-15T01:21:35.488Z,42.51
2016-10-15T01:22:16.217Z,42.41
2016-10-15T01:22:56.906Z,42.61
2016-10-15T01:23:37.598Z,42.63
2016-10-15T01:24:18.273Z,42.44
2016-10-15T01:24:58.960Z,42.24
2016-10-15T01:25:39.662Z,42.61
2016-10-15T01:26:20.330Z,42.03
2016-10-15T01:27:01.033Z,42.41
2016-10-15T01:27:41.705Z,42.34
2016-10-15T01:28:22.384Z,42.51
2016-10-15T01:29:03.113Z,42.13
2016-10-15T01:29:43.835Z,42.32
2016-10-15T01:30:24.530Z,42.63
2016-10-15T01:31:05.251Z,42.32
2016-10-15T01:31:45.911Z,42.32
2016-10-15T01:32:26.638Z,42.34
2016-10-15T01:33:07.266Z,42.44
2016-10-15T01:33:47.978Z,42.34
2016-10-15T01:34:28.667Z,42.54
2016-10-15T01:35:09.386Z,42.44
2016-10-15T01:35:50.076Z,42.34
2016-10-15T01:36:30.786Z,42.44
2016-10-15T01:37:11.487Z,42.44
2016-10-15T01:37:52.144Z,42.32
2016-10-15T01:38:32.852Z,42.44
2016-10-15T01:39:13.501Z,42.14
2016-10-15T01:39:54.201Z,42.41
2016-10-15T01:40:34.876Z,42.13
2016-10-15T01:41:15.575Z,42.71
2016-10-15T01:41:56.256Z,42.24
2016-10-15T01:42:36.925Z,42.24
2016-10-15T01:43:17.596Z,42.72
2016-10-15T01:43:58.287Z,42.14
2016-10-15T01:44:38.965Z,42.51
2016-10-15T01:45:19.631Z,42.63
2016-10-15T01:46:00.341Z,42.61
2016-10-15T01:46:41.047Z,42.24
2016-10-15T01:47:21.725Z,42.22
2016-10-15T01:48:02.460Z,42.32
2016-10-15T01:48:43.140Z,42.51
2016-10-15T01:49:23.769Z,42.41
2016-10-15T01:50:04.438Z,42.34
2016-10-15T01:50:45.144Z,42.41
2016-10-15T01:51:25.890Z,42.13
2016-10-15T01:52:06.593Z,42.41
2016-10-15T01:52:47.264Z,42.44
2016-10-15T01:53:27.960Z,42.41
2016-10-15T01:54:08.629Z,42.34
2016-10-15T01:54:49.332Z,42.72
2016-10-15T01:55:29.968Z,42.63
2016-10-15T01:56:10.704Z,42.54
2016-10-15T01:56:51.401Z,42.92
2016-10-15T01:57:32.052Z,42.9
2016-10-15T01:58:12.709Z,42.44
2016-10-15T01:58:53.369Z,42.44
2016-10-15T01:59:34.069Z,42.24
2016-10-15T02:00:15.758Z,42.92
2016-10-15T02:00:56.447Z,42.92
2016-10-15T02:01:37.131Z,42.92
2016-10-15T02:02:17.825Z,42.72
2016-10-15T02:02:58.503Z,43.02
2016-10-15T02:03:39.220Z,43.02
2016-10-15T02:04:19.898Z,43.02
2016-10-15T02:05:00.567Z,42.92
2016-10-15T02:05:41.224Z,42.82
2016-10-15T02:06:21.923Z,43.02
2016-10-15T02:07:02.629Z,42.8
2016-10-15T02:07:43.338Z,42.82
2016-10-15T02:08:24.025Z,42.8
2016-10-15T02:09:04.735Z,42.8
2016-10-15T02:09:45.362Z,42.92
2016-10-15T02:10:26.097Z,42.82
2016-10-15T02:11:06.872Z,42.92
2016-10-15T02:11:47.549Z,42.8
2016-10-15T02:12:28.250Z,43.02
2016-10-15T02:13:08.968Z,42.9
2016-10-15T02:13:49.676Z,43
2016-10-15T02:14:30.344Z,43
2016-10-15T02:15:11.021Z,42.92
2016-10-15T02:15:51.679Z,42.92
2016-10-15T02:16:32.377Z,42.92
2016-10-15T02:17:13.016Z,42.92
2016-10-15T02:17:53.699Z,42.92
2016-10-15T02:18:34.419Z,42.92
2016-10-15T02:19:15.149Z,42.82
2016-10-15T02:19:55.788Z,43
2016-10-15T02:20:36.410Z,42.92
2016-10-15T02:21:17.060Z,42.92
2016-10-15T02:21:57.729Z,43.21
2016-10-15T02:22:38.400Z,42.92
2016-10-15T02:23:19.064Z,42.92
2016-10-15T02:23:59.770Z,42.92
2016-10-15T02:24:40.459Z,43.02
2016-10-15T02:25:21.148Z,42.92
2016-10-15T02:26:01.827Z,42.82
2016-10-15T02:26:42.502Z,43.09
2016-10-15T02:27:23.157Z,42.71
2016-10-15T02:28:03.857Z,42.54
2016-10-15T02:28:44.556Z,43.12
2016-10-15T02:29:25.263Z,43
2016-10-15T02:30:05.930Z,42.92
2016-10-15T02:30:46.608Z,42.9
2016-10-15T02:31:27.318Z,43.02
2016-10-15T02:32:08.001Z,43
2016-10-15T02:32:48.667Z,42.9
2016-10-15T02:33:29.379Z,43
2016-10-15T02:34:10.042Z,42.8
2016-10-15T02:34:50.749Z,42.92
2016-10-15T02:35:31.481Z,42.92
2016-10-15T02:36:12.174Z,43.02
2016-10-15T02:36:52.844Z,42.92
2016-10-15T02:37:33.566Z,42.82
2016-10-15T02:38:14.227Z,42.92
2016-10-15T02:38:54.906Z,43.12
2016-10-15T02:39:35.581Z,42.92
2016-10-15T02:40:16.291Z,42.41
2016-10-15T02:40:56.963Z,42.9
2016-10-15T02:41:37.637Z,43.02
2016-10-15T02:42:18.269Z,43
2016-10-15T02:42:58.999Z,42.8
2016-10-15T02:43:39.665Z,42.71
2016-10-15T02:44:20.323Z,42.82
2016-10-15T02:45:00.974Z,43.02
2016-10-15T02:45:41.672Z,43
2016-10-15T02:46:22.379Z,42.9
2016-10-15T02:47:03.053Z,42.9
2016-10-15T02:47:43.761Z,42.9
2016-10-15T02:48:24.452Z,43.12
2016-10-15T02:49:05.123Z,43.02
2016-10-15T02:49:45.774Z,42.9
2016-10-15T02:50:26.455Z,42.51
2016-10-15T02:51:07.144Z,42.92
2016-10-15T02:51:47.837Z,43.21
2016-10-15T02:52:28.561Z,42.63
2016-10-15T02:53:09.206Z,43.12
2016-10-15T02:53:49.910Z,43.12
2016-10-15T02:54:30.607Z,42.8
2016-10-15T02:55:11.304Z,42.54
2016-10-15T02:55:52.041Z,43.09
2016-10-15T02:56:32.707Z,42.63
2016-10-15T02:57:13.371Z,42.61
2016-10-15T02:57:54.046Z,42.9
2016-10-15T02:58:34.719Z,43.21
2016-10-15T02:59:15.375Z,42.92
2016-10-15T02:59:56.098Z,43.02
2016-10-15T03:00:36.835Z,43.12
2016-10-15T03:01:17.573Z,43.09
2016-10-15T03:01:58.272Z,43.12
2016-10-15T03:02:38.963Z,43.02
2016-10-15T03:03:19.677Z,43.12
2016-10-15T03:04:00.321Z,42.72
2016-10-15T03:04:40.976Z,42.71
2016-10-15T03:05:21.642Z,43.12
2016-10-15T03:06:02.358Z,43
2016-10-15T03:06:43.018Z,42.72
2016-10-15T03:07:23.718Z,43.21
2016-10-15T03:08:04.362Z,43.21
2016-10-15T03:08:45.040Z,43.21
2016-10-15T03:09:25.760Z,43.09
2016-10-15T03:10:06.459Z,43.12
2016-10-15T03:10:47.167Z,43.12
2016-10-15T03:11:27.813Z,42.71
2016-10-15T03:12:08.537Z,43.02
2016-10-15T03:12:49.196Z,43.21
2016-10-15T03:13:29.867Z,43.09
2016-10-15T03:14:10.577Z,42.92
2016-10-15T03:14:51.258Z,43.21
2016-10-15T03:15:31.933Z,42.71
2016-10-15T03:16:12.629Z,43.09
2016-10-15T03:16:53.278Z,42.92
2016-10-15T03:17:33.935Z,43.02
2016-10-15T03:18:14.632Z,43.12
2016-10-15T03:18:55.275Z,43.02
2016-10-15T03:19:36.012Z,43.09
2016-10-15T03:20:16.710Z,43.12
2016-10-15T03:20:57.434Z,43.02
2016-10-15T03:21:38.126Z,42.72
2016-10-15T03:22:18.782Z,42.9
2016-10-15T03:22:59.476Z,42.82
2016-10-15T03:23:40.147Z,42.92
2016-10-15T03:24:20.856Z,43
2016-10-15T03:25:01.513Z,42.92
2016-10-15T03:25:42.201Z,43.21
2016-10-15T03:26:22.821Z,43.02
2016-10-15T03:27:03.549Z,42.92
2016-10-15T03:27:44.236Z,43.09
2016-10-15T03:28:24.895Z,43.21
2016-10-15T03:29:05.613Z,42.8
2016-10-15T03:29:46.299Z,43.02
2016-10-15T03:30:27.019Z,43.02
2016-10-15T03:31:07.699Z,43.02
2016-10-15T03:31:48.386Z,43.09
2016-10-15T03:32:29.071Z,43.19
2016-10-15T03:33:09.770Z,43.21
2016-10-15T03:33:50.458Z,43.09
2016-10-15T03:34:31.190Z,43.12
2016-10-15T03:35:11.891Z,43.41
2016-10-15T03:35:52.567Z,43.41
2016-10-15T03:36:33.236Z,43.09
2016-10-15T03:37:13.876Z,43.21
2016-10-15T03:37:54.569Z,43.12
2016-10-15T03:38:35.241Z,43.41
2016-10-15T03:39:15.942Z,43.38
2016-10-15T03:39:56.627Z,43.41
2016-10-15T03:40:37.272Z,43.31
2016-10-15T03:41:17.993Z,43.21
2016-10-15T03:41:58.717Z,43.02
2016-10-15T03:42:39.383Z,43.19
2016-10-15T03:43:20.050Z,43.02
2016-10-15T03:44:00.728Z,43.41
2016-10-15T03:44:41.424Z,43.38
2016-10-15T03:45:22.078Z,43.31
2016-10-15T03:46:02.778Z,43.48
2016-10-15T03:46:43.453Z,43.38
2016-10-15T03:47:24.100Z,43.38
2016-10-15T03:48:04.813Z,43.41
2016-10-15T03:48:45.531Z,43.29
2016-10-15T03:49:26.185Z,43.41
2016-10-15T03:50:06.860Z,43.31
2016-10-15T03:50:47.554Z,43.5
2016-10-15T03:51:28.296Z,43.29
2016-10-15T03:52:08.937Z,43.5
2016-10-15T03:52:49.621Z,43.5
2016-10-15T03:53:30.332Z,43.38
2016-10-15T03:54:10.966Z,43.5
2016-10-15T03:54:51.639Z,43.41
2016-10-15T03:55:32.310Z,43.5
2016-10-15T03:56:13.001Z,43.41
2016-10-15T03:56:53.720Z,43.29
2016-10-15T03:57:34.357Z,43.19
2016-10-15T03:58:15.044Z,43.5
2016-10-15T03:58:55.748Z,43.5
2016-10-15T03:59:36.436Z,43.29
2016-10-15T04:00:17.082Z,43.38
2016-10-15T04:00:57.801Z,43.5
2016-10-15T04:01:38.464Z,43.31
2016-10-15T04:02:19.137Z,43.41
2016-10-15T04:02:59.817Z,43.41
2016-10-15T04:03:40.447Z,43.41
2016-10-15T04:04:21.151Z,43.41
2016-10-15T04:05:01.813Z,43.31
2016-10-15T04:05:42.480Z,43.31
2016-10-15T04:06:23.168Z,43.41
2016-10-15T04:07:03.817Z,43.41
2016-10-15T04:07:44.543Z,43.19
2016-10-15T04:08:25.197Z,43.31
2016-10-15T04:09:05.924Z,43.5
2016-10-15T04:09:46.619Z,43.41
2016-10-15T04:10:27.273Z,43.31
2016-10-15T04:11:07.933Z,43.48
2016-10-15T04:11:48.617Z,43.31
2016-10-15T04:12:29.265Z,43.5
2016-10-15T04:13:09.954Z,43.41
2016-10-15T04:13:50.649Z,43.48
2016-10-15T04:14:31.333Z,43.41
2016-10-15T04:15:11.982Z,43.38
2016-10-15T04:15:52.723Z,43.5
2016-10-15T04:16:33.424Z,43.41
2016-10-15T04:17:14.079Z,43.41
2016-10-15T04:17:54.779Z,43.31
2016-10-15T04:18:35.393Z,43.48
2016-10-15T04:19:16.108Z,43.29
2016-10-15T04:19:56.761Z,43.31
2016-10-15T04:20:38.014Z,43.5
2016-10-15T04:21:18.702Z,43.41
2016-10-15T04:21:59.401Z,43.38
2016-10-15T04:22:40.093Z,43.6
2016-10-15T04:23:20.759Z,43.38
2016-10-15T04:24:01.422Z,43.41
2016-10-15T04:24:42.123Z,43.41
2016-10-15T04:25:22.809Z,43.5
2016-10-15T04:26:03.482Z,43.29
2016-10-15T04:26:45.031Z,43.29
2016-10-15T04:27:25.719Z,43.41
2016-10-15T04:28:06.432Z,43.41
2016-10-15T04:28:47.147Z,43.38
2016-10-15T04:29:27.842Z,43.29
2016-10-15T04:30:08.523Z,43.31
2016-10-15T04:30:49.240Z,43.31
2016-10-15T04:31:29.919Z,43.6
2016-10-15T04:32:10.616Z,43.41
2016-10-15T04:32:51.256Z,43.38
2016-10-15T04:33:31.940Z,43.5
2016-10-15T04:34:12.588Z,43.38
2016-10-15T04:34:53.265Z,43.41
2016-10-15T04:35:33.978Z,43.6
2016-10-15T04:36:14.652Z,43.5
2016-10-15T04:36:55.334Z,43.31
2016-10-15T04:37:36.045Z,43.38
2016-10-15T04:38:16.709Z,43.41
2016-10-15T04:38:57.386Z,43.48
2016-10-15T04:39:38.069Z,43.58
2016-10-15T04:40:18.778Z,43.41
2016-10-15T04:40:59.466Z,43.29
2016-10-15T04:41:40.184Z,43.41
2016-10-15T04:42:20.888Z,43.41
2016-10-15T04:43:02.408Z,43.5
2016-10-15T04:43:43.062Z,43.41
2016-10-15T04:44:23.690Z,43.5
2016-10-15T04:45:04.361Z,43.48
2016-10-15T04:45:45.051Z,43.5
2016-10-15T04:46:25.757Z,43.6
2016-10-15T04:47:06.424Z,43.5
2016-10-15T04:47:47.088Z,43.58
2016-10-15T04:48:27.781Z,43.58
2016-10-15T04:49:08.481Z,43.58
2016-10-15T04:49:49.712Z,43.6
2016-10-15T04:50:30.426Z,43.6
2016-10-15T04:51:11.119Z,43.6
2016-10-15T04:51:51.806Z,43.58
2016-10-15T04:52:32.477Z,43.5
2016-10-15T04:53:13.203Z,43.79
2016-10-15T04:53:53.883Z,43.6
2016-10-15T04:54:34.587Z,43.7
2016-10-15T04:55:15.276Z,43.6
2016-10-15T04:55:55.932Z,43.6
2016-10-15T04:56:36.612Z,43.58
2016-10-15T04:57:17.295Z,43.6
2016-10-15T04:57:57.998Z,43.7
2016-10-15T04:58:38.676Z,43.68
2016-10-15T04:59:19.367Z,43.6
2016-10-15T05:00:00.025Z,43.7
2016-10-15T05:00:40.694Z,43.58
2016-10-15T05:01:21.370Z,43.68
2016-10-15T05:02:02.062Z,43.6
2016-10-15T05:02:42.735Z,43.6
2016-10-15T05:03:23.412Z,43.77
2016-10-15T05:04:04.124Z,43.31
2016-10-15T05:04:44.815Z,43.87
2016-10-15T05:05:25.507Z,43.41
2016-10-15T05:06:06.212Z,43.29
2016-10-15T05:06:46.887Z,43.41
2016-10-15T05:07:27.585Z,43.5
2016-10-15T05:08:08.242Z,43.68
2016-10-15T05:08:48.920Z,43.68
2016-10-15T05:09:29.605Z,43.68
2016-10-15T05:10:10.328Z,43.48
2016-10-15T05:10:51.018Z,43.68
2016-10-15T05:11:31.701Z,43.5
2016-10-15T05:12:12.434Z,43.31
2016-10-15T05:12:53.102Z,43.77
2016-10-15T05:13:34.761Z,43.31
2016-10-15T05:14:15.452Z,43.5
2016-10-15T05:14:56.151Z,43.7
2016-10-15T05:15:36.846Z,43.79
2016-10-15T05:16:17.560Z,43.41
2016-10-15T05:16:58.223Z,43.38
2016-10-15T05:17:38.891Z,43.38
2016-10-15T05:18:19.556Z,43.41
2016-10-15T05:19:00.241Z,43.38
2016-10-15T05:19:40.930Z,43.41
2016-10-15T05:20:21.616Z,43.48
2016-10-15T05:21:02.365Z,43.38
2016-10-15T05:21:43.082Z,43.31
2016-10-15T05:22:23.768Z,43.5
2016-10-15T05:23:04.484Z,43.38
2016-10-15T05:23:45.167Z,43.31
2016-10-15T05:24:25.862Z,43.29
2016-10-15T05:25:06.568Z,43.41
2016-10-15T05:25:47.227Z,43.41
2016-10-15T05:26:27.947Z,43.38
2016-10-15T05:27:08.588Z,43.6
2016-10-15T05:27:49.267Z,43.41
2016-10-15T05:28:29.933Z,43.89
2016-10-15T05:29:10.612Z,43.48
2016-10-15T05:29:51.304Z,43.89
2016-10-15T05:30:32.008Z,43.41
2016-10-15T05:31:12.638Z,43.5
2016-10-15T05:31:53.278Z,43.87
2016-10-15T05:32:33.950Z,43.87
2016-10-15T05:33:14.602Z,43.87
2016-10-15T05:33:55.273Z,43.48
2016-10-15T05:34:35.961Z,43.68
2016-10-15T05:35:16.648Z,43.68
2016-10-15T05:35:57.358Z,43.79
2016-10-15T05:36:38.079Z,43.79
2016-10-15T05:37:18.740Z,43.96
2016-10-15T05:37:59.405Z,43.87
2016-10-15T05:38:40.087Z,43.77
2016-10-15T05:39:20.812Z,43.89
2016-10-15T05:40:01.532Z,43.7
2016-10-15T05:40:42.229Z,43.79
2016-10-15T05:41:22.903Z,43.79
2016-10-15T05:42:03.594Z,43.79
2016-10-15T05:42:44.293Z,43.79
2016-10-15T05:43:24.935Z,43.87
2016-10-15T05:44:05.644Z,43.89
2016-10-15T05:44:46.306Z,43.89
2016-10-15T05:45:27.584Z,43.87
2016-10-15T05:46:07.713Z,43.79
2016-10-15T05:46:48.413Z,43.87
2016-10-15T05:47:29.073Z,43.7
2016-10-15T05:48:09.748Z,43.79
2016-10-15T05:48:50.409Z,43.89
2016-10-15T05:49:31.072Z,43.68
2016-10-15T05:50:11.780Z,43.68
2016-10-15T05:50:52.443Z,43.79
2016-10-15T05:51:33.163Z,43.77
2016-10-15T05:52:13.913Z,43.89
2016-10-15T05:52:54.562Z,43.68
2016-10-15T05:53:35.239Z,43.89
2016-10-15T05:54:15.914Z,43.79
2016-10-15T05:54:56.602Z,43.68
2016-10-15T05:55:37.264Z,43.79
2016-10-15T05:56:17.948Z,43.77
2016-10-15T05:56:58.637Z,43.7
2016-10-15T05:57:39.306Z,43.79
2016-10-15T05:58:20.175Z,43.77
2016-10-15T05:59:00.875Z,43.79
2016-10-15T05:59:41.539Z,43.99
2016-10-15T06:00:22.223Z,43.87
2016-10-15T06:01:02.873Z,43.77
2016-10-15T06:01:43.545Z,43.79
2016-10-15T06:02:24.209Z,43.68
2016-10-15T06:03:04.886Z,43.79
2016-10-15T06:03:45.538Z,43.99
2016-10-15T06:04:26.272Z,43.99
2016-10-15T06:05:06.989Z,43.7
2016-10-15T06:05:47.673Z,43.7
2016-10-15T06:06:28.330Z,43.99
2016-10-15T06:07:08.993Z,43.99
2016-10-15T06:07:49.699Z,43.79
2016-10-15T06:08:30.448Z,43.77
2016-10-15T06:09:11.165Z,43.99
2016-10-15T06:09:51.868Z,43.96
2016-10-15T06:10:32.544Z,43.7
2016-10-15T06:11:13.225Z,43.99
2016-10-15T06:11:53.870Z,43.89
2016-10-15T06:12:34.552Z,43.79
2016-10-15T06:13:15.253Z,43.7
2016-10-15T06:13:55.903Z,43.79
2016-10-15T06:14:36.595Z,43.89
2016-10-15T06:15:18.070Z,43.87
2016-10-15T06:15:57.943Z,43.89
2016-10-15T06:16:38.611Z,43.79
2016-10-15T06:17:19.302Z,43.89
2016-10-15T06:18:00.019Z,43.79
2016-10-15T06:18:40.672Z,44.09
2016-10-15T06:19:21.352Z,43.87
2016-10-15T06:20:02.017Z,43.79
2016-10-15T06:20:42.674Z,43.89
2016-10-15T06:21:23.364Z,43.79
2016-10-15T06:22:04.075Z,43.89
2016-10-15T06:22:44.771Z,43.87
2016-10-15T06:23:25.452Z,43.89
2016-10-15T06:24:06.144Z,43.96
2016-10-15T06:24:46.817Z,43.87
2016-10-15T06:25:27.465Z,43.89
2016-10-15T06:26:08.137Z,43.89
2016-10-15T06:26:48.843Z,43.79
2016-10-15T06:27:29.517Z,43.99
2016-10-15T06:28:10.198Z,43.89
2016-10-15T06:28:50.862Z,43.96
2016-10-15T06:29:31.600Z,43.89
2016-10-15T06:30:12.293Z,43.89
2016-10-15T06:30:52.975Z,43.96
2016-10-15T06:31:33.663Z,43.87
2016-10-15T06:32:14.330Z,43.99
2016-10-15T06:32:55.030Z,43.89
2016-10-15T06:33:35.699Z,43.99
2016-10-15T06:34:16.323Z,43.89
2016-10-15T06:34:57.029Z,43.89
2016-10-15T06:35:37.768Z,43.99
2016-10-15T06:36:18.451Z,43.89
2016-10-15T06:36:59.142Z,43.79
2016-10-15T06:37:39.820Z,43.79
2016-10-15T06:38:20.480Z,43.87
2016-10-15T06:39:01.125Z,44.09
2016-10-15T06:39:41.801Z,44.09
2016-10-15T06:40:22.485Z,43.89
2016-10-15T06:41:03.183Z,43.87
2016-10-15T06:41:43.876Z,43.6
2016-10-15T06:42:24.579Z,43.89
2016-10-15T06:43:05.244Z,43.7
2016-10-15T06:43:45.944Z,44.18
2016-10-15T06:44:26.604Z,44.18
2016-10-15T06:45:07.323Z,43.89
2016-10-15T06:45:47.967Z,43.7
2016-10-15T06:46:28.677Z,43.79
2016-10-15T06:47:09.378Z,43.99
2016-10-15T06:47:50.033Z,44.18
2016-10-15T06:48:30.743Z,43.89
2016-10-15T06:49:11.424Z,44.09
2016-10-15T06:49:52.077Z,44.09
2016-10-15T06:50:32.726Z,43.99
2016-10-15T06:51:13.443Z,43.7
2016-10-15T06:51:54.153Z,43.79
2016-10-15T06:52:34.819Z,43.89
2016-10-15T06:53:15.472Z,43.99
2016-10-15T06:53:56.154Z,43.89
2016-10-15T06:54:36.882Z,43.89
2016-10-15T06:55:17.546Z,43.79
2016-10-15T06:55:58.243Z,43.89
2016-10-15T06:56:38.919Z,43.89
2016-10-15T06:57:19.636Z,43.89
2016-10-15T06:58:00.359Z,43.99
2016-10-15T06:58:41.079Z,43.89
2016-10-15T06:59:21.796Z,43.7
2016-10-15T07:00:02.505Z,43.7
2016-10-15T07:00:43.165Z,43.79
2016-10-15T07:01:23.860Z,43.7
2016-10-15T07:02:05.281Z,43.7
2016-10-15T07:02:45.945Z,43.7
2016-10-15T07:03:26.586Z,43.7
2016-10-15T07:04:07.272Z,43.79
2016-10-15T07:04:47.933Z,43.89
2016-10-15T07:05:28.598Z,43.89
2016-10-15T07:06:09.283Z,43.7
2016-10-15T07:06:49.940Z,43.79
2016-10-15T07:07:30.616Z,43.79
2016-10-15T07:08:11.329Z,43.79
2016-10-15T07:08:52.016Z,43.7
2016-10-15T07:09:32.750Z,43.7
2016-10-15T07:10:13.396Z,43.6
2016-10-15T07:10:54.109Z,43.7
2016-10-15T07:11:34.730Z,43.7
2016-10-15T07:12:15.451Z,43.89
2016-10-15T07:12:56.141Z,43.79
2016-10-15T07:13:36.814Z,43.7
2016-10-15T07:14:17.505Z,43.6
2016-10-15T07:14:58.233Z,43.79
2016-10-15T07:15:38.928Z,43.79
2016-10-15T07:16:19.622Z,43.7
2016-10-15T07:17:00.276Z,43.7
2016-10-15T07:17:40.947Z,43.7
2016-10-15T07:18:21.594Z,43.7
2016-10-15T07:19:02.307Z,43.7
2016-10-15T07:19:43.000Z,43.7
2016-10-15T07:20:23.671Z,43.7
2016-10-15T07:21:04.352Z,43.79
2016-10-15T07:21:44.995Z,43.7
2016-10-15T07:22:25.662Z,43.5
2016-10-15T07:23:06.380Z,43.7
2016-10-15T07:23:47.109Z,43.7
2016-10-15T07:24:27.823Z,43.89
2016-10-15T07:25:08.501Z,43.7
2016-10-15T07:25:49.127Z,43.7
2016-10-15T07:26:29.876Z,43.89
2016-10-15T07:27:10.551Z,43.79
2016-10-15T07:27:51.259Z,43.89
2016-10-15T07:28:31.916Z,43.7
2016-10-15T07:29:12.575Z,43.7
2016-10-15T07:29:53.310Z,43.79
2016-10-15T07:30:33.985Z,43.5
2016-10-15T07:31:14.633Z,43.79
2016-10-15T07:31:55.339Z,43.79
2016-10-15T07:32:36.047Z,43.79
2016-10-15T07:33:16.721Z,43.89
2016-10-15T07:33:57.393Z,43.5
2016-10-15T07:34:38.111Z,43.6
2016-10-15T07:35:18.770Z,43.5
2016-10-15T07:35:59.420Z,43.89
2016-10-15T07:36:40.109Z,43.41
2016-10-15T07:37:20.780Z,43.5
2016-10-15T07:38:01.494Z,43.41
2016-10-15T07:38:42.214Z,43.31
2016-10-15T07:39:23.633Z,43.31
2016-10-15T07:40:03.608Z,43.41
2016-10-15T07:40:44.346Z,43.41
2016-10-15T07:41:25.035Z,43.5
2016-10-15T07:42:05.719Z,43.33
2016-10-15T07:42:46.369Z,43.5
2016-10-15T07:43:27.045Z,43.5
2016-10-15T07:44:07.746Z,43.41
2016-10-15T07:44:48.411Z,43.41
2016-10-15T07:45:29.090Z,43.7
2016-10-15T07:46:09.830Z,43.82
2016-10-15T07:46:50.487Z,43.7
2016-10-15T07:47:31.162Z,43.7
2016-10-15T07:48:11.865Z,43.7
2016-10-15T07:48:52.521Z,43.72
2016-10-15T07:49:33.214Z,43.79
2016-10-15T07:50:13.940Z,43.5
2016-10-15T07:50:54.611Z,43.7
2016-10-15T07:51:35.286Z,43.72
2016-10-15T07:52:15.966Z,43.62
2016-10-15T07:52:56.653Z,43.62
2016-10-15T07:53:37.345Z,43.72
2016-10-15T07:54:18.011Z,43.7
2016-10-15T07:54:58.736Z,43.7
2016-10-15T07:55:39.439Z,43.72
2016-10-15T07:56:20.113Z,43.62
2016-10-15T07:57:00.826Z,43.82
2016-10-15T07:57:41.514Z,43.52
2016-10-15T07:58:22.212Z,43.72
2016-10-15T07:59:02.895Z,43.52
2016-10-15T07:59:43.627Z,43.72
2016-10-15T08:00:24.316Z,43.72
2016-10-15T08:01:04.992Z,43.62
2016-10-15T08:01:45.727Z,43.62
2016-10-15T08:02:26.420Z,43.62
2016-10-15T08:03:07.109Z,43.82
2016-10-15T08:03:47.770Z,43.72
2016-10-15T08:04:28.477Z,43.72
2016-10-15T08:05:09.133Z,43.62
2016-10-15T08:05:49.849Z,43.72
2016-10-15T08:06:30.533Z,43.62
2016-10-15T08:07:11.209Z,43.72
2016-10-15T08:07:51.907Z,43.72
2016-10-15T08:08:32.615Z,43.72
2016-10-15T08:09:13.336Z,43.72
2016-10-15T08:09:54.005Z,43.52
2016-10-15T08:10:34.667Z,43.62
2016-10-15T08:11:15.359Z,43.62
2016-10-15T08:11:56.042Z,43.62
2016-10-15T08:12:36.695Z,43.52
2016-10-15T08:13:17.420Z,43.62
2016-10-15T08:13:58.093Z,43.62
2016-10-15T08:14:38.785Z,43.72
2016-10-15T08:15:19.497Z,43.62
2016-10-15T08:16:00.223Z,43.72
2016-10-15T08:16:40.899Z,43.72
2016-10-15T08:17:21.652Z,43.72
2016-10-15T08:18:02.472Z,43.62
2016-10-15T08:18:43.157Z,43.72
2016-10-15T08:19:23.881Z,43.62
2016-10-15T08:20:04.574Z,43.52
2016-10-15T08:20:45.282Z,43.72
2016-10-15T08:21:25.985Z,43.62
2016-10-15T08:22:06.671Z,43.72
2016-10-15T08:22:47.406Z,43.62
2016-10-15T08:23:28.108Z,43.62
2016-10-15T08:24:08.776Z,43.62
2016-10-15T08:24:49.462Z,43.62
2016-10-15T08:25:30.176Z,43.72
2016-10-15T08:26:10.916Z,43.62
2016-10-15T08:26:51.582Z,43.62
2016-10-15T08:27:32.281Z,43.52
2016-10-15T08:28:12.967Z,43.62
2016-10-15T08:28:53.691Z,43.62
2016-10-15T08:29:34.360Z,43.62
2016-10-15T08:30:15.083Z,43.72
2016-10-15T08:30:55.738Z,43.72
2016-10-15T08:31:36.394Z,43.52
2016-10-15T08:32:17.067Z,43.62
2016-10-15T08:32:57.710Z,43.52
2016-10-15T08:33:38.453Z,43.62
2016-10-15T08:34:19.149Z,43.72
2016-10-15T08:35:00.665Z,43.62
2016-10-15T08:35:40.524Z,43.62
2016-10-15T08:36:21.214Z,43.52
2016-10-15T08:37:01.919Z,43.52
2016-10-15T08:37:42.643Z,43.62
2016-10-15T08:38:23.317Z,43.62
2016-10-15T08:39:04.015Z,43.52
2016-10-15T08:39:44.667Z,43.52
2016-10-15T08:40:25.384Z,43.43
2016-10-15T08:41:06.108Z,43.62
2016-10-15T08:41:46.757Z,43.52
2016-10-15T08:42:27.472Z,43.43
2016-10-15T08:43:08.208Z,43.52
2016-10-15T08:43:48.920Z,43.62
2016-10-15T08:44:29.581Z,43.62
2016-10-15T08:45:10.232Z,43.43
2016-10-15T08:45:50.919Z,43.43
2016-10-15T08:46:31.610Z,43.62
2016-10-15T08:47:12.294Z,43.52